sensor_id;sensor_type;location;lat;lon;timestamp;P1;durP1;ratioP1;P2;durP2;ratioP2
51848;SDS011;38952;51.090;-1.832;2022-09-09T00:00:24;7.00;;;1.17;;
51848;SDS011;38952;51.090;-1.832;2022-09-09T00:03:42;5.70;;;1.27;;
51848;SDS011;38952;51.090;-1.832;2022-09-09T00:08:19;4.70;;;1.08;;
51848;SDS011;38952;51.090;-1.832;2022-09-09T00:10:49;7.10;;;1.10;;
51848;SDS011;38952;51.090;-1.832;2022-09-09T00:13:41;5.03;;;1.40;;
51848;SDS011;38952;51.090;-1.832;2022-09-09T00:16:15;2.22;;;1.13;;
51848;SDS011;38952;51.090;-1.832;2022-09-09T00:22:00;3.10;;;1.25;;
51848;SDS011;38952;51.090;-1.832;2022-09-09T00:24:29;2.83;;;1.10;;
51848;SDS011;38952;51.090;-1.832;2022-09-09T00:27:16;4.43;;;1.23;;
51848;SDS011;38952;51.090;-1.832;2022-09-09T00:32:48;4.97;;;1.35;;
51848;SDS011;38952;51.090;-1.832;2022-09-09T00:35:37;5.03;;;1.20;;
51848;SDS011;38952;51.090;-1.832;2022-09-09T00:38:09;4.18;;;1.50;;
51848;SDS011;38952;51.090;-1.832;2022-09-09T00:40:41;5.13;;;1.63;;
51848;SDS011;38952;51.090;-1.832;2022-09-09T00:48:19;3.70;;;1.40;;
51848;SDS011;38952;51.090;-1.832;2022-09-09T00:50:56;3.53;;;1.53;;
51848;SDS011;38952;51.090;-1.832;2022-09-09T00:56:13;5.20;;;1.42;;
51848;SDS011;38952;51.090;-1.832;2022-09-09T00:58:49;3.47;;;1.80;;
51848;SDS011;38952;51.090;-1.832;2022-09-09T01:01:32;3.08;;;1.35;;
51848;SDS011;38952;51.090;-1.832;2022-09-09T01:03:58;8.80;;;1.85;;
51848;SDS011;38952;51.090;-1.832;2022-09-09T01:17:01;9.38;;;3.42;;
51848;SDS011;38952;51.090;-1.832;2022-09-09T01:22:14;2.97;;;1.90;;
51848;SDS011;38952;51.090;-1.832;2022-09-09T01:27:38;6.68;;;2.67;;
51848;SDS011;38952;51.090;-1.832;2022-09-09T01:30:10;4.82;;;2.50;;
51848;SDS011;38952;51.090;-1.832;2022-09-09T01:32:45;6.10;;;2.30;;
51848;SDS011;38952;51.090;-1.832;2022-09-09T01:35:31;2.78;;;1.80;;
51848;SDS011;38952;51.090;-1.832;2022-09-09T01:38:03;4.40;;;1.95;;
51848;SDS011;38952;51.090;-1.832;2022-09-09T01:40:30;4.40;;;2.40;;
51848;SDS011;38952;51.090;-1.832;2022-09-09T01:42:55;6.65;;;2.97;;
51848;SDS011;38952;51.090;-1.832;2022-09-09T01:45:21;7.97;;;2.35;;
51848;SDS011;38952;51.090;-1.832;2022-09-09T01:47:48;6.95;;;2.38;;
51848;SDS011;38952;51.090;-1.832;2022-09-09T01:50:14;5.28;;;2.70;;
51848;SDS011;38952;51.090;-1.832;2022-09-09T01:52:41;7.20;;;2.30;;
51848;SDS011;38952;51.090;-1.832;2022-09-09T01:55:08;5.93;;;2.90;;
51848;SDS011;38952;51.090;-1.832;2022-09-09T01:58:37;3.67;;;2.33;;
51848;SDS011;38952;51.090;-1.832;2022-09-09T02:00:44;7.95;;;2.53;;
51848;SDS011;38952;51.090;-1.832;2022-09-09T02:03:25;4.78;;;2.17;;
51848;SDS011;38952;51.090;-1.832;2022-09-09T02:08:20;6.07;;;2.13;;
51848;SDS011;38952;51.090;-1.832;2022-09-09T02:10:58;7.13;;;2.17;;
51848;SDS011;38952;51.090;-1.832;2022-09-09T02:13:37;7.50;;;2.42;;
51848;SDS011;38952;51.090;-1.832;2022-09-09T02:16:08;5.80;;;2.72;;
51848;SDS011;38952;51.090;-1.832;2022-09-09T02:18:51;8.05;;;2.55;;
51848;SDS011;38952;51.090;-1.832;2022-09-09T02:21:26;5.95;;;2.88;;
51848;SDS011;38952;51.090;-1.832;2022-09-09T02:23:53;4.82;;;2.28;;
51848;SDS011;38952;51.090;-1.832;2022-09-09T02:26:21;7.32;;;2.78;;
51848;SDS011;38952;51.090;-1.832;2022-09-09T02:28:48;11.68;;;2.30;;
51848;SDS011;38952;51.090;-1.832;2022-09-09T02:31:16;6.30;;;2.60;;
51848;SDS011;38952;51.090;-1.832;2022-09-09T02:33:46;6.05;;;2.17;;
51848;SDS011;38952;51.090;-1.832;2022-09-09T02:36:15;6.40;;;2.38;;
51848;SDS011;38952;51.090;-1.832;2022-09-09T02:38:45;4.15;;;1.95;;
51848;SDS011;38952;51.090;-1.832;2022-09-09T02:41:23;5.05;;;1.88;;
51848;SDS011;38952;51.090;-1.832;2022-09-09T02:43:53;4.30;;;2.80;;
51848;SDS011;38952;51.090;-1.832;2022-09-09T02:48:54;7.28;;;2.10;;
51848;SDS011;38952;51.090;-1.832;2022-09-09T02:59:19;3.65;;;2.45;;
51848;SDS011;38952;51.090;-1.832;2022-09-09T03:01:46;7.20;;;3.38;;
51848;SDS011;38952;51.090;-1.832;2022-09-09T03:04:12;4.10;;;2.53;;
51848;SDS011;38952;51.090;-1.832;2022-09-09T03:06:38;5.85;;;2.60;;
51848;SDS011;38952;51.090;-1.832;2022-09-09T03:09:03;5.68;;;2.67;;
51848;SDS011;38952;51.090;-1.832;2022-09-09T03:11:29;5.18;;;2.45;;
51848;SDS011;38952;51.090;-1.832;2022-09-09T03:13:54;4.80;;;2.50;;
51848;SDS011;38952;51.090;-1.832;2022-09-09T03:16:21;3.90;;;2.60;;
51848;SDS011;38952;51.090;-1.832;2022-09-09T03:18:47;3.28;;;2.38;;
51848;SDS011;38952;51.090;-1.832;2022-09-09T03:21:13;3.33;;;2.40;;
51848;SDS011;38952;51.090;-1.832;2022-09-09T03:23:39;2.70;;;2.45;;
51848;SDS011;38952;51.090;-1.832;2022-09-09T03:26:04;4.82;;;2.63;;
51848;SDS011;38952;51.090;-1.832;2022-09-09T03:28:30;5.03;;;2.40;;
51848;SDS011;38952;51.090;-1.832;2022-09-09T03:30:59;4.15;;;2.15;;
51848;SDS011;38952;51.090;-1.832;2022-09-09T03:33:25;3.30;;;2.42;;
51848;SDS011;38952;51.090;-1.832;2022-09-09T03:35:51;2.78;;;2.22;;
51848;SDS011;38952;51.090;-1.832;2022-09-09T03:38:16;5.43;;;2.60;;
51848;SDS011;38952;51.090;-1.832;2022-09-09T03:40:51;2.70;;;1.70;;
51848;SDS011;38952;51.090;-1.832;2022-09-09T03:43:23;3.88;;;2.15;;
51848;SDS011;38952;51.090;-1.832;2022-09-09T03:45:50;2.88;;;1.88;;
51848;SDS011;38952;51.090;-1.832;2022-09-09T03:48:16;5.38;;;3.40;;
51848;SDS011;38952;51.090;-1.832;2022-09-09T03:50:46;9.43;;;3.40;;
51848;SDS011;38952;51.090;-1.832;2022-09-09T03:53:13;6.30;;;3.55;;
51848;SDS011;38952;51.090;-1.832;2022-09-09T03:55:43;8.65;;;3.95;;
51848;SDS011;38952;51.090;-1.832;2022-09-09T03:58:13;5.80;;;3.95;;
51848;SDS011;38952;51.090;-1.832;2022-09-09T04:00:39;6.85;;;3.70;;
51848;SDS011;38952;51.090;-1.832;2022-09-09T04:03:10;5.93;;;3.58;;
51848;SDS011;38952;51.090;-1.832;2022-09-09T04:05:36;8.35;;;4.90;;
51848;SDS011;38952;51.090;-1.832;2022-09-09T04:08:07;5.20;;;3.53;;
51848;SDS011;38952;51.090;-1.832;2022-09-09T04:10:33;7.25;;;4.30;;
51848;SDS011;38952;51.090;-1.832;2022-09-09T04:13:01;7.38;;;4.35;;
51848;SDS011;38952;51.090;-1.832;2022-09-09T04:15:27;9.80;;;4.05;;
51848;SDS011;38952;51.090;-1.832;2022-09-09T04:17:53;5.70;;;3.72;;
51848;SDS011;38952;51.090;-1.832;2022-09-09T04:20:18;11.07;;;3.17;;
51848;SDS011;38952;51.090;-1.832;2022-09-09T04:22:44;7.35;;;3.38;;
51848;SDS011;38952;51.090;-1.832;2022-09-09T04:25:09;6.22;;;2.45;;
51848;SDS011;38952;51.090;-1.832;2022-09-09T04:27:35;4.30;;;2.42;;
51848;SDS011;38952;51.090;-1.832;2022-09-09T04:30:00;6.60;;;2.65;;
51848;SDS011;38952;51.090;-1.832;2022-09-09T04:32:26;6.85;;;2.30;;
51848;SDS011;38952;51.090;-1.832;2022-09-09T04:34:52;4.60;;;2.20;;
51848;SDS011;38952;51.090;-1.832;2022-09-09T04:37:17;2.80;;;2.10;;
51848;SDS011;38952;51.090;-1.832;2022-09-09T04:39:43;5.32;;;2.38;;
51848;SDS011;38952;51.090;-1.832;2022-09-09T04:42:10;6.22;;;2.08;;
51848;SDS011;38952;51.090;-1.832;2022-09-09T04:44:37;5.75;;;3.22;;
51848;SDS011;38952;51.090;-1.832;2022-09-09T04:47:03;4.10;;;2.25;;
51848;SDS011;38952;51.090;-1.832;2022-09-09T04:49:29;3.92;;;2.50;;
51848;SDS011;38952;51.090;-1.832;2022-09-09T04:51:57;2.50;;;2.25;;
51848;SDS011;38952;51.090;-1.832;2022-09-09T04:54:22;4.68;;;2.00;;
51848;SDS011;38952;51.090;-1.832;2022-09-09T04:56:49;4.47;;;2.33;;
51848;SDS011;38952;51.090;-1.832;2022-09-09T04:59:15;3.72;;;2.67;;
51848;SDS011;38952;51.090;-1.832;2022-09-09T05:01:41;3.65;;;2.10;;
51848;SDS011;38952;51.090;-1.832;2022-09-09T05:04:07;4.80;;;2.10;;
51848;SDS011;38952;51.090;-1.832;2022-09-09T05:06:33;3.17;;;1.80;;
51848;SDS011;38952;51.090;-1.832;2022-09-09T05:09:01;3.97;;;2.03;;
51848;SDS011;38952;51.090;-1.832;2022-09-09T05:11:28;4.88;;;2.25;;
51848;SDS011;38952;51.090;-1.832;2022-09-09T05:13:57;4.97;;;2.22;;
51848;SDS011;38952;51.090;-1.832;2022-09-09T05:16:22;6.72;;;1.73;;
51848;SDS011;38952;51.090;-1.832;2022-09-09T05:18:48;6.85;;;2.28;;
51848;SDS011;38952;51.090;-1.832;2022-09-09T05:21:16;2.13;;;1.80;;
51848;SDS011;38952;51.090;-1.832;2022-09-09T05:23:43;4.25;;;1.80;;
51848;SDS011;38952;51.090;-1.832;2022-09-09T05:26:12;5.22;;;1.80;;
51848;SDS011;38952;51.090;-1.832;2022-09-09T05:28:39;5.97;;;2.00;;
51848;SDS011;38952;51.090;-1.832;2022-09-09T05:31:09;5.50;;;1.98;;
51848;SDS011;38952;51.090;-1.832;2022-09-09T05:33:39;3.95;;;1.52;;
51848;SDS011;38952;51.090;-1.832;2022-09-09T05:36:07;3.50;;;1.52;;
51848;SDS011;38952;51.090;-1.832;2022-09-09T05:38:34;1.52;;;1.38;;
51848;SDS011;38952;51.090;-1.832;2022-09-09T05:41:01;5.93;;;1.95;;
51848;SDS011;38952;51.090;-1.832;2022-09-09T05:43:27;9.10;;;1.60;;
51848;SDS011;38952;51.090;-1.832;2022-09-09T05:48:33;3.95;;;1.80;;
51848;SDS011;38952;51.090;-1.832;2022-09-09T05:51:01;2.58;;;1.58;;
51848;SDS011;38952;51.090;-1.832;2022-09-09T05:53:27;7.78;;;1.50;;
51848;SDS011;38952;51.090;-1.832;2022-09-09T05:58:33;2.97;;;1.27;;
51848;SDS011;38952;51.090;-1.832;2022-09-09T06:03:28;6.82;;;1.55;;
51848;SDS011;38952;51.090;-1.832;2022-09-09T06:06:00;3.38;;;1.33;;
51848;SDS011;38952;51.090;-1.832;2022-09-09T06:08:31;2.63;;;1.25;;
51848;SDS011;38952;51.090;-1.832;2022-09-09T06:11:02;6.68;;;1.20;;
51848;SDS011;38952;51.090;-1.832;2022-09-09T06:13:29;2.67;;;1.13;;
51848;SDS011;38952;51.090;-1.832;2022-09-09T06:15:55;4.40;;;1.23;;
51848;SDS011;38952;51.090;-1.832;2022-09-09T06:18:21;6.80;;;1.23;;
51848;SDS011;38952;51.090;-1.832;2022-09-09T06:20:55;1.48;;;0.77;;
51848;SDS011;38952;51.090;-1.832;2022-09-09T06:23:26;4.45;;;1.27;;
51848;SDS011;38952;51.090;-1.832;2022-09-09T06:25:52;7.13;;;1.00;;
51848;SDS011;38952;51.090;-1.832;2022-09-09T06:28:43;5.75;;;1.13;;
51848;SDS011;38952;51.090;-1.832;2022-09-09T06:31:11;2.95;;;0.82;;
51848;SDS011;38952;51.090;-1.832;2022-09-09T06:33:38;3.17;;;0.73;;
51848;SDS011;38952;51.090;-1.832;2022-09-09T06:36:06;6.63;;;1.02;;
51848;SDS011;38952;51.090;-1.832;2022-09-09T06:38:35;3.85;;;0.80;;
51848;SDS011;38952;51.090;-1.832;2022-09-09T06:41:01;3.22;;;0.85;;
51848;SDS011;38952;51.090;-1.832;2022-09-09T06:43:26;4.22;;;0.85;;
51848;SDS011;38952;51.090;-1.832;2022-09-09T06:46:00;2.78;;;0.70;;
51848;SDS011;38952;51.090;-1.832;2022-09-09T06:48:27;1.17;;;0.70;;
51848;SDS011;38952;51.090;-1.832;2022-09-09T06:51:00;5.22;;;0.90;;
51848;SDS011;38952;51.090;-1.832;2022-09-09T06:53:29;2.45;;;1.05;;
51848;SDS011;38952;51.090;-1.832;2022-09-09T06:55:55;2.15;;;0.88;;
51848;SDS011;38952;51.090;-1.832;2022-09-09T06:58:20;9.60;;;0.82;;
51848;SDS011;38952;51.090;-1.832;2022-09-09T07:00:49;3.85;;;0.73;;
51848;SDS011;38952;51.090;-1.832;2022-09-09T07:03:14;6.10;;;0.95;;
51848;SDS011;38952;51.090;-1.832;2022-09-09T07:05:40;1.80;;;0.73;;
51848;SDS011;38952;51.090;-1.832;2022-09-09T07:08:05;2.17;;;0.60;;
51848;SDS011;38952;51.090;-1.832;2022-09-09T07:10:31;4.57;;;0.90;;
51848;SDS011;38952;51.090;-1.832;2022-09-09T07:12:56;4.40;;;1.00;;
51848;SDS011;38952;51.090;-1.832;2022-09-09T07:15:22;3.65;;;0.70;;
51848;SDS011;38952;51.090;-1.832;2022-09-09T07:17:48;1.83;;;0.70;;
51848;SDS011;38952;51.090;-1.832;2022-09-09T07:20:13;2.63;;;0.73;;
51848;SDS011;38952;51.090;-1.832;2022-09-09T07:22:40;2.17;;;0.70;;
51848;SDS011;38952;51.090;-1.832;2022-09-09T07:25:05;1.70;;;0.85;;
51848;SDS011;38952;51.090;-1.832;2022-09-09T07:27:31;2.50;;;0.77;;
51848;SDS011;38952;51.090;-1.832;2022-09-09T07:29:57;6.75;;;1.30;;
51848;SDS011;38952;51.090;-1.832;2022-09-09T07:32:22;5.07;;;0.80;;
51848;SDS011;38952;51.090;-1.832;2022-09-09T07:34:48;3.85;;;1.48;;
51848;SDS011;38952;51.090;-1.832;2022-09-09T07:37:15;6.43;;;1.08;;
51848;SDS011;38952;51.090;-1.832;2022-09-09T07:39:41;6.00;;;1.15;;
51848;SDS011;38952;51.090;-1.832;2022-09-09T07:42:07;9.00;;;1.35;;
51848;SDS011;38952;51.090;-1.832;2022-09-09T07:44:34;2.63;;;1.13;;
51848;SDS011;38952;51.090;-1.832;2022-09-09T07:47:01;5.82;;;1.30;;
51848;SDS011;38952;51.090;-1.832;2022-09-09T07:49:27;5.28;;;1.63;;
51848;SDS011;38952;51.090;-1.832;2022-09-09T07:51:53;7.22;;;1.17;;
51848;SDS011;38952;51.090;-1.832;2022-09-09T07:54:18;4.60;;;1.00;;
51848;SDS011;38952;51.090;-1.832;2022-09-09T07:56:45;2.58;;;1.08;;
51848;SDS011;38952;51.090;-1.832;2022-09-09T07:59:12;4.97;;;1.08;;
51848;SDS011;38952;51.090;-1.832;2022-09-09T08:01:43;4.28;;;1.35;;
51848;SDS011;38952;51.090;-1.832;2022-09-09T08:04:14;3.97;;;0.98;;
51848;SDS011;38952;51.090;-1.832;2022-09-09T08:06:43;1.67;;;0.93;;
51848;SDS011;38952;51.090;-1.832;2022-09-09T08:09:11;2.03;;;0.82;;
51848;SDS011;38952;51.090;-1.832;2022-09-09T08:11:38;5.30;;;1.38;;
51848;SDS011;38952;51.090;-1.832;2022-09-09T08:14:04;5.35;;;1.10;;
51848;SDS011;38952;51.090;-1.832;2022-09-09T08:16:33;3.85;;;1.08;;
51848;SDS011;38952;51.090;-1.832;2022-09-09T08:19:02;4.97;;;1.20;;
51848;SDS011;38952;51.090;-1.832;2022-09-09T08:21:29;4.32;;;0.75;;
51848;SDS011;38952;51.090;-1.832;2022-09-09T08:23:57;4.82;;;0.82;;
51848;SDS011;38952;51.090;-1.832;2022-09-09T08:26:24;3.97;;;0.90;;
51848;SDS011;38952;51.090;-1.832;2022-09-09T08:28:56;3.30;;;0.98;;
51848;SDS011;38952;51.090;-1.832;2022-09-09T08:31:27;3.97;;;0.90;;
51848;SDS011;38952;51.090;-1.832;2022-09-09T08:33:54;1.25;;;0.70;;
51848;SDS011;38952;51.090;-1.832;2022-09-09T08:36:22;2.53;;;0.82;;
51848;SDS011;38952;51.090;-1.832;2022-09-09T08:38:49;4.15;;;1.08;;
51848;SDS011;38952;51.090;-1.832;2022-09-09T08:44:07;1.67;;;0.55;;
51848;SDS011;38952;51.090;-1.832;2022-09-09T08:51:58;2.25;;;0.70;;
51848;SDS011;38952;51.090;-1.832;2022-09-09T08:54:24;2.22;;;0.63;;
51848;SDS011;38952;51.090;-1.832;2022-09-09T08:56:58;3.20;;;0.52;;
51848;SDS011;38952;51.090;-1.832;2022-09-09T08:59:23;2.10;;;0.65;;
51848;SDS011;38952;51.090;-1.832;2022-09-09T09:04:43;2.55;;;0.93;;
51848;SDS011;38952;51.090;-1.832;2022-09-09T09:10:28;2.17;;;0.60;;
51848;SDS011;38952;51.090;-1.832;2022-09-09T09:13:15;6.40;;;0.77;;
51848;SDS011;38952;51.090;-1.832;2022-09-09T09:15:49;2.67;;;0.52;;
51848;SDS011;38952;51.090;-1.832;2022-09-09T09:18:19;1.38;;;0.30;;
51848;SDS011;38952;51.090;-1.832;2022-09-09T09:20:54;2.80;;;0.38;;
51848;SDS011;38952;51.090;-1.832;2022-09-09T09:26:00;4.45;;;0.40;;
51848;SDS011;38952;51.090;-1.832;2022-09-09T09:28:30;2.58;;;0.57;;
51848;SDS011;38952;51.090;-1.832;2022-09-09T09:31:03;0.57;;;0.40;;
51848;SDS011;38952;51.090;-1.832;2022-09-09T09:35:59;3.88;;;0.70;;
51848;SDS011;38952;51.090;-1.832;2022-09-09T09:38:27;2.28;;;0.50;;
51848;SDS011;38952;51.090;-1.832;2022-09-09T09:40:54;3.55;;;0.55;;
51848;SDS011;38952;51.090;-1.832;2022-09-09T09:43:34;3.97;;;0.65;;
51848;SDS011;38952;51.090;-1.832;2022-09-09T09:46:04;2.55;;;0.88;;
51848;SDS011;38952;51.090;-1.832;2022-09-09T09:48:30;3.80;;;0.70;;
51848;SDS011;38952;51.090;-1.832;2022-09-09T09:53:35;3.03;;;0.60;;
51848;SDS011;38952;51.090;-1.832;2022-09-09T09:56:04;4.15;;;1.10;;
51848;SDS011;38952;51.090;-1.832;2022-09-09T10:01:22;3.00;;;0.80;;
51848;SDS011;38952;51.090;-1.832;2022-09-09T10:04:02;3.47;;;0.57;;
51848;SDS011;38952;51.090;-1.832;2022-09-09T10:06:50;3.72;;;0.80;;
51848;SDS011;38952;51.090;-1.832;2022-09-09T10:23:22;4.00;;;0.95;;
51848;SDS011;38952;51.090;-1.832;2022-09-09T10:29:30;2.13;;;1.25;;
51848;SDS011;38952;51.090;-1.832;2022-09-09T10:40:04;1.15;;;0.60;;
51848;SDS011;38952;51.090;-1.832;2022-09-09T10:42:45;4.72;;;1.08;;
51848;SDS011;38952;51.090;-1.832;2022-09-09T10:50:53;3.08;;;0.82;;
51848;SDS011;38952;51.090;-1.832;2022-09-09T10:56:23;0.65;;;0.38;;
51848;SDS011;38952;51.090;-1.832;2022-09-09T10:58:56;7.10;;;0.60;;
51848;SDS011;38952;51.090;-1.832;2022-09-09T11:01:33;1.55;;;0.30;;
51848;SDS011;38952;51.090;-1.832;2022-09-09T11:04:06;2.20;;;0.40;;
51848;SDS011;38952;51.090;-1.832;2022-09-09T11:06:42;2.70;;;0.80;;
51848;SDS011;38952;51.090;-1.832;2022-09-09T11:09:14;4.20;;;0.88;;
51848;SDS011;38952;51.090;-1.832;2022-09-09T11:17:10;0.85;;;0.50;;
51848;SDS011;38952;51.090;-1.832;2022-09-09T11:19:40;1.13;;;0.30;;
51848;SDS011;38952;51.090;-1.832;2022-09-09T11:24:53;1.25;;;0.10;;
51848;SDS011;38952;51.090;-1.832;2022-09-09T11:27:44;1.15;;;0.30;;
51848;SDS011;38952;51.090;-1.832;2022-09-09T11:44:32;0.25;;;0.17;;
51848;SDS011;38952;51.090;-1.832;2022-09-09T11:46:58;2.28;;;0.57;;
51848;SDS011;38952;51.090;-1.832;2022-09-09T11:49:28;2.13;;;0.30;;
51848;SDS011;38952;51.090;-1.832;2022-09-09T11:52:39;1.40;;;0.30;;
51848;SDS011;38952;51.090;-1.832;2022-09-09T11:55:12;1.30;;;0.30;;
51848;SDS011;38952;51.090;-1.832;2022-09-09T12:00:47;0.77;;;0.30;;
51848;SDS011;38952;51.090;-1.832;2022-09-09T12:08:44;0.40;;;0.30;;
51848;SDS011;38952;51.090;-1.832;2022-09-09T12:11:29;1.48;;;0.30;;
51848;SDS011;38952;51.090;-1.832;2022-09-09T12:13:56;0.35;;;0.20;;
51848;SDS011;38952;51.090;-1.832;2022-09-09T12:16:31;1.30;;;0.30;;
51848;SDS011;38952;51.090;-1.832;2022-09-09T12:24:11;0.50;;;0.38;;
51848;SDS011;38952;51.090;-1.832;2022-09-09T12:32:32;0.55;;;0.35;;
51848;SDS011;38952;51.090;-1.832;2022-09-09T12:37:47;0.95;;;0.30;;
51848;SDS011;38952;51.090;-1.832;2022-09-09T12:42:49;0.60;;;0.38;;
51848;SDS011;38952;51.090;-1.832;2022-09-09T12:45:18;0.82;;;0.32;;
51848;SDS011;38952;51.090;-1.832;2022-09-09T12:50:24;0.75;;;0.28;;
51848;SDS011;38952;51.090;-1.832;2022-09-09T12:52:51;1.23;;;0.32;;
51848;SDS011;38952;51.090;-1.832;2022-09-09T12:55:21;1.65;;;0.60;;
51848;SDS011;38952;51.090;-1.832;2022-09-09T12:57:50;1.45;;;0.50;;
51848;SDS011;38952;51.090;-1.832;2022-09-09T13:00:20;5.18;;;0.50;;
51848;SDS011;38952;51.090;-1.832;2022-09-09T13:02:55;1.35;;;0.45;;
51848;SDS011;38952;51.090;-1.832;2022-09-09T13:07:51;2.47;;;0.70;;
51848;SDS011;38952;51.090;-1.832;2022-09-09T13:10:21;1.17;;;0.70;;
51848;SDS011;38952;51.090;-1.832;2022-09-09T13:12:51;2.33;;;0.90;;
51848;SDS011;38952;51.090;-1.832;2022-09-09T13:15:24;1.88;;;0.82;;
51848;SDS011;38952;51.090;-1.832;2022-09-09T13:17:57;1.80;;;0.95;;
51848;SDS011;38952;51.090;-1.832;2022-09-09T13:20:26;1.77;;;0.77;;
51848;SDS011;38952;51.090;-1.832;2022-09-09T13:22:52;2.28;;;0.70;;
51848;SDS011;38952;51.090;-1.832;2022-09-09T13:25:23;0.63;;;0.40;;
51848;SDS011;38952;51.090;-1.832;2022-09-09T13:27:52;3.15;;;0.47;;
51848;SDS011;38952;51.090;-1.832;2022-09-09T13:30:32;2.33;;;0.70;;
51848;SDS011;38952;51.090;-1.832;2022-09-09T13:36:13;3.03;;;0.63;;
51848;SDS011;38952;51.090;-1.832;2022-09-09T13:38:37;2.47;;;0.90;;
51848;SDS011;38952;51.090;-1.832;2022-09-09T13:41:18;1.20;;;0.45;;
51848;SDS011;38952;51.090;-1.832;2022-09-09T13:43:46;1.55;;;0.70;;
51848;SDS011;38952;51.090;-1.832;2022-09-09T13:48:58;1.45;;;0.60;;
51848;SDS011;38952;51.090;-1.832;2022-09-09T13:51:40;4.20;;;0.82;;
51848;SDS011;38952;51.090;-1.832;2022-09-09T13:54:11;7.50;;;1.27;;
51848;SDS011;38952;51.090;-1.832;2022-09-09T13:56:38;2.08;;;0.68;;
51848;SDS011;38952;51.090;-1.832;2022-09-09T13:59:05;1.85;;;0.77;;
51848;SDS011;38952;51.090;-1.832;2022-09-09T14:01:35;2.10;;;0.70;;
51848;SDS011;38952;51.090;-1.832;2022-09-09T14:04:02;3.92;;;1.02;;
51848;SDS011;38952;51.090;-1.832;2022-09-09T14:06:28;2.65;;;1.00;;
51848;SDS011;38952;51.090;-1.832;2022-09-09T14:08:54;3.67;;;0.85;;
51848;SDS011;38952;51.090;-1.832;2022-09-09T14:11:20;3.55;;;0.70;;
51848;SDS011;38952;51.090;-1.832;2022-09-09T14:13:46;7.72;;;1.10;;
51848;SDS011;38952;51.090;-1.832;2022-09-09T14:16:12;1.83;;;0.65;;
51848;SDS011;38952;51.090;-1.832;2022-09-09T14:18:38;1.50;;;0.80;;
51848;SDS011;38952;51.090;-1.832;2022-09-09T14:21:04;1.90;;;0.70;;
51848;SDS011;38952;51.090;-1.832;2022-09-09T14:23:29;3.08;;;0.85;;
51848;SDS011;38952;51.090;-1.832;2022-09-09T14:25:55;4.68;;;0.90;;
51848;SDS011;38952;51.090;-1.832;2022-09-09T14:28:21;3.95;;;0.80;;
51848;SDS011;38952;51.090;-1.832;2022-09-09T14:30:46;3.05;;;1.10;;
51848;SDS011;38952;51.090;-1.832;2022-09-09T14:33:13;2.65;;;1.25;;
51848;SDS011;38952;51.090;-1.832;2022-09-09T14:35:40;2.00;;;0.90;;
51848;SDS011;38952;51.090;-1.832;2022-09-09T14:38:08;1.77;;;0.75;;
51848;SDS011;38952;51.090;-1.832;2022-09-09T14:40:39;3.97;;;1.02;;
51848;SDS011;38952;51.090;-1.832;2022-09-09T14:43:05;5.43;;;1.00;;
51848;SDS011;38952;51.090;-1.832;2022-09-09T14:45:31;4.50;;;0.98;;
51848;SDS011;38952;51.090;-1.832;2022-09-09T14:47:56;6.57;;;1.05;;
51848;SDS011;38952;51.090;-1.832;2022-09-09T14:50:22;1.83;;;0.70;;
51848;SDS011;38952;51.090;-1.832;2022-09-09T14:52:48;2.22;;;0.85;;
51848;SDS011;38952;51.090;-1.832;2022-09-09T14:55:15;1.88;;;0.73;;
51848;SDS011;38952;51.090;-1.832;2022-09-09T14:57:41;2.97;;;0.47;;
51848;SDS011;38952;51.090;-1.832;2022-09-09T15:00:07;2.25;;;0.70;;
51848;SDS011;38952;51.090;-1.832;2022-09-09T15:02:34;2.45;;;0.55;;
51848;SDS011;38952;51.090;-1.832;2022-09-09T15:05:00;1.92;;;0.60;;
51848;SDS011;38952;51.090;-1.832;2022-09-09T15:07:26;1.38;;;0.68;;
51848;SDS011;38952;51.090;-1.832;2022-09-09T15:09:53;1.05;;;0.60;;
51848;SDS011;38952;51.090;-1.832;2022-09-09T15:12:19;1.35;;;0.60;;
51848;SDS011;38952;51.090;-1.832;2022-09-09T15:14:45;6.20;;;0.60;;
51848;SDS011;38952;51.090;-1.832;2022-09-09T15:17:11;3.28;;;0.85;;
51848;SDS011;38952;51.090;-1.832;2022-09-09T15:19:37;1.50;;;0.70;;
51848;SDS011;38952;51.090;-1.832;2022-09-09T15:22:03;3.42;;;0.65;;
51848;SDS011;38952;51.090;-1.832;2022-09-09T15:24:30;6.22;;;0.65;;
51848;SDS011;38952;51.090;-1.832;2022-09-09T15:26:56;5.65;;;0.93;;
51848;SDS011;38952;51.090;-1.832;2022-09-09T15:29:22;0.70;;;0.47;;
51848;SDS011;38952;51.090;-1.832;2022-09-09T15:31:48;1.35;;;0.65;;
51848;SDS011;38952;51.090;-1.832;2022-09-09T15:34:13;5.68;;;0.80;;
51848;SDS011;38952;51.090;-1.832;2022-09-09T15:36:40;2.38;;;0.82;;
51848;SDS011;38952;51.090;-1.832;2022-09-09T15:39:07;3.15;;;0.80;;
51848;SDS011;38952;51.090;-1.832;2022-09-09T15:41:40;2.97;;;0.88;;
51848;SDS011;38952;51.090;-1.832;2022-09-09T15:44:06;7.03;;;0.98;;
51848;SDS011;38952;51.090;-1.832;2022-09-09T15:46:41;1.05;;;0.63;;
51848;SDS011;38952;51.090;-1.832;2022-09-09T15:49:10;4.25;;;0.90;;
51848;SDS011;38952;51.090;-1.832;2022-09-09T15:51:38;4.30;;;0.75;;
51848;SDS011;38952;51.090;-1.832;2022-09-09T15:54:05;1.75;;;0.90;;
51848;SDS011;38952;51.090;-1.832;2022-09-09T15:56:31;3.83;;;0.50;;
51848;SDS011;38952;51.090;-1.832;2022-09-09T15:58:57;4.80;;;0.80;;
51848;SDS011;38952;51.090;-1.832;2022-09-09T16:01:24;1.88;;;0.60;;
51848;SDS011;38952;51.090;-1.832;2022-09-09T16:03:51;4.28;;;0.93;;
51848;SDS011;38952;51.090;-1.832;2022-09-09T16:06:18;2.72;;;0.90;;
51848;SDS011;38952;51.090;-1.832;2022-09-09T16:08:47;5.40;;;0.60;;
51848;SDS011;38952;51.090;-1.832;2022-09-09T16:11:19;2.88;;;0.70;;
51848;SDS011;38952;51.090;-1.832;2022-09-09T16:13:47;3.13;;;0.73;;
51848;SDS011;38952;51.090;-1.832;2022-09-09T16:16:14;3.50;;;0.95;;
51848;SDS011;38952;51.090;-1.832;2022-09-09T16:18:42;5.38;;;0.95;;
51848;SDS011;38952;51.090;-1.832;2022-09-09T16:24:07;2.90;;;1.00;;
51848;SDS011;38952;51.090;-1.832;2022-09-09T16:26:35;2.38;;;0.82;;
51848;SDS011;38952;51.090;-1.832;2022-09-09T16:29:02;3.08;;;1.08;;
51848;SDS011;38952;51.090;-1.832;2022-09-09T16:31:28;5.63;;;1.17;;
51848;SDS011;38952;51.090;-1.832;2022-09-09T16:33:55;7.07;;;1.23;;
51848;SDS011;38952;51.090;-1.832;2022-09-09T16:36:31;1.65;;;0.77;;
51848;SDS011;38952;51.090;-1.832;2022-09-09T16:39:02;4.75;;;0.90;;
51848;SDS011;38952;51.090;-1.832;2022-09-09T16:41:30;6.55;;;1.20;;
51848;SDS011;38952;51.090;-1.832;2022-09-09T16:43:57;7.53;;;1.00;;
51848;SDS011;38952;51.090;-1.832;2022-09-09T16:46:24;4.22;;;1.10;;
51848;SDS011;38952;51.090;-1.832;2022-09-09T16:48:52;4.07;;;1.00;;
51848;SDS011;38952;51.090;-1.832;2022-09-09T16:51:18;3.80;;;1.00;;
51848;SDS011;38952;51.090;-1.832;2022-09-09T16:53:48;3.75;;;0.90;;
51848;SDS011;38952;51.090;-1.832;2022-09-09T16:56:18;2.78;;;0.98;;
51848;SDS011;38952;51.090;-1.832;2022-09-09T16:58:49;3.95;;;0.93;;
51848;SDS011;38952;51.090;-1.832;2022-09-09T17:01:16;4.85;;;0.90;;
51848;SDS011;38952;51.090;-1.832;2022-09-09T17:03:41;4.82;;;1.10;;
51848;SDS011;38952;51.090;-1.832;2022-09-09T17:06:10;3.55;;;1.25;;
51848;SDS011;38952;51.090;-1.832;2022-09-09T17:08:37;1.90;;;0.80;;
51848;SDS011;38952;51.090;-1.832;2022-09-09T17:11:04;1.83;;;0.80;;
51848;SDS011;38952;51.090;-1.832;2022-09-09T17:13:50;4.20;;;1.00;;
51848;SDS011;38952;51.090;-1.832;2022-09-09T17:16:17;9.38;;;1.08;;
51848;SDS011;38952;51.090;-1.832;2022-09-09T17:18:46;5.50;;;1.00;;
51848;SDS011;38952;51.090;-1.832;2022-09-09T17:21:13;5.93;;;0.93;;
51848;SDS011;38952;51.090;-1.832;2022-09-09T17:23:40;3.65;;;0.80;;
51848;SDS011;38952;51.090;-1.832;2022-09-09T17:26:06;6.07;;;1.42;;
51848;SDS011;38952;51.090;-1.832;2022-09-09T17:28:35;3.17;;;0.90;;
51848;SDS011;38952;51.090;-1.832;2022-09-09T17:31:04;5.07;;;0.93;;
51848;SDS011;38952;51.090;-1.832;2022-09-09T17:33:34;3.17;;;1.02;;
51848;SDS011;38952;51.090;-1.832;2022-09-09T17:36:06;4.88;;;0.98;;
51848;SDS011;38952;51.090;-1.832;2022-09-09T17:38:40;4.78;;;1.15;;